createdAt,value
2023-01-21T00:00:33.956Z,101621.69
2023-01-21T00:05:25.525Z,101724.00
2023-01-21T00:10:18.826Z,101687.81
2023-01-21T00:15:10.812Z,101738.75
2023-01-21T00:20:04.694Z,101778.47
2023-01-21T00:24:56.333Z,101789.78
2023-01-21T00:29:47.915Z,101797.09
2023-01-21T00:34:40.352Z,101721.88
2023-01-21T00:39:31.894Z,101748.41
2023-01-21T00:44:23.493Z,101752.75
2023-01-21T00:49:15.029Z,101615.41
2023-01-21T00:54:07.296Z,101803.78
2023-01-21T00:58:58.900Z,101841.56
2023-01-21T01:03:50.756Z,101827.66
2023-01-21T01:08:43.326Z,101740.31
2023-01-21T01:13:36.297Z,101712.66
2023-01-21T01:18:30.117Z,101871.75
2023-01-21T01:23:21.858Z,101787.34
2023-01-21T01:28:13.461Z,101886.03
2023-01-21T01:33:05.061Z,101885.31
2023-01-21T01:37:56.645Z,101906.09
2023-01-21T01:42:48.249Z,101790.16
2023-01-21T01:47:44.173Z,101858.84
2023-01-21T01:52:36.288Z,101858.31
2023-01-21T01:57:34.713Z,101790.22
2023-01-21T02:02:26.319Z,101941.91
2023-01-21T02:07:22.497Z,101953.03
2023-01-21T02:12:15.347Z,101873.53
2023-01-21T02:17:21.260Z,101949.53
2023-01-21T02:22:22.592Z,101958.91
2023-01-21T02:27:52.900Z,101912.56
2023-01-21T02:33:15.596Z,101977.00
2023-01-21T02:38:20.669Z,101896.81
2023-01-21T02:43:42.355Z,101894.06
2023-01-21T02:48:42.685Z,101992.94
2023-01-21T02:53:36.361Z,101993.84
2023-01-21T02:58:33.374Z,102001.13
2023-01-21T03:03:50.077Z,101997.81
2023-01-21T03:08:51.769Z,101903.22
2023-01-21T03:14:38.213Z,102005.91
2023-01-21T03:19:41.323Z,102013.81
2023-01-21T03:24:34.431Z,102001.09
2023-01-21T03:29:29.573Z,102026.97
2023-01-21T03:34:24.595Z,101949.22
2023-01-21T03:39:21.484Z,101864.38
2023-01-21T03:44:13.134Z,101951.03
2023-01-21T03:49:12.424Z,102035.44
2023-01-21T03:54:04.120Z,101964.63
2023-01-21T03:58:55.917Z,102043.97
2023-01-21T04:03:47.653Z,102049.28
2023-01-21T04:08:39.876Z,102032.34
2023-01-21T04:13:31.479Z,102034.28
2023-01-21T04:18:23.102Z,102034.53
2023-01-21T04:23:14.710Z,102075.84
2023-01-21T04:28:06.308Z,102080.78
2023-01-21T04:32:57.844Z,102085.31
2023-01-21T04:37:49.857Z,102064.19
2023-01-21T04:42:44.599Z,101988.31
2023-01-21T04:47:36.254Z,102062.88
2023-01-21T04:52:27.958Z,101908.03
2023-01-21T04:57:20.350Z,102057.06
2023-01-21T05:02:12.022Z,102047.56
2023-01-21T05:07:03.629Z,102086.59
2023-01-21T05:11:55.207Z,102024.78
2023-01-21T05:16:47.035Z,102044.66
2023-01-21T05:21:38.638Z,102138.63
2023-01-21T05:26:30.209Z,102127.19
2023-01-21T05:31:21.948Z,102135.38
2023-01-21T05:36:14.342Z,102148.94
2023-01-21T05:41:06.057Z,102159.53
2023-01-21T05:45:57.813Z,102160.19
2023-01-21T05:50:49.730Z,102138.59
2023-01-21T05:55:41.431Z,102018.59
2023-01-21T06:00:33.116Z,102152.63
2023-01-21T06:05:24.783Z,102189.19
2023-01-21T06:10:16.994Z,102185.88
2023-01-21T06:15:09.338Z,102122.69
2023-01-21T06:20:00.911Z,102199.56
2023-01-21T06:24:52.772Z,102178.00
2023-01-21T06:29:44.445Z,102189.56
2023-01-21T06:34:36.206Z,102128.59
2023-01-21T06:39:27.863Z,102246.47
2023-01-21T06:44:20.585Z,102160.38
2023-01-21T06:49:18.002Z,102247.81
2023-01-21T06:54:12.548Z,102250.63
2023-01-21T06:59:04.571Z,102165.59
2023-01-21T07:03:56.787Z,102258.78
2023-01-21T07:08:48.686Z,102024.16
2023-01-21T07:13:40.807Z,102234.91
2023-01-21T07:18:32.434Z,102274.16
2023-01-21T07:23:24.275Z,102245.25
2023-01-21T07:28:15.971Z,102288.53
2023-01-21T07:33:10.910Z,102118.66
2023-01-21T07:38:02.926Z,102291.81
2023-01-21T07:42:56.334Z,102285.13
2023-01-21T07:47:49.324Z,102136.72
2023-01-21T07:52:40.911Z,102222.66
2023-01-21T07:57:32.577Z,102293.19
2023-01-21T08:02:24.499Z,102283.56
2023-01-21T08:07:16.414Z,102137.06
2023-01-21T08:12:08.985Z,102295.78
2023-01-21T08:17:01.326Z,102321.50
2023-01-21T08:21:53.060Z,102147.22
2023-01-21T08:26:45.411Z,102233.44
2023-01-21T08:31:37.186Z,102180.22
2023-01-21T08:36:28.925Z,102235.34
2023-01-21T08:41:20.809Z,102356.72
2023-01-21T08:46:13.371Z,102285.09
2023-01-21T08:51:05.733Z,102219.78
2023-01-21T08:56:01.495Z,102362.34
2023-01-21T09:15:20.304Z,102387.09
2023-01-21T09:20:12.376Z,102414.13
2023-01-21T09:25:10.176Z,102314.25
2023-01-21T09:30:01.794Z,102427.63
2023-01-21T09:34:53.501Z,101986.13
2023-01-21T09:39:45.169Z,102161.94
2023-01-21T09:44:44.758Z,102429.06
2023-01-21T09:49:41.626Z,102338.94
2023-01-21T09:54:36.773Z,102429.06
2023-01-21T09:59:55.285Z,102462.84
2023-01-21T10:04:55.517Z,102353.88
2023-01-21T10:10:15.051Z,102449.59
2023-01-21T10:15:31.927Z,102457.00
2023-01-21T10:20:33.288Z,102408.91
2023-01-21T10:25:37.047Z,102452.41
2023-01-21T10:30:39.440Z,102409.03
2023-01-21T10:36:09.608Z,102461.13
2023-01-21T10:41:01.140Z,102463.78
2023-01-21T10:46:17.050Z,102467.78
2023-01-21T10:51:32.093Z,102473.63
2023-01-21T10:56:40.273Z,102449.22
2023-01-21T11:01:44.007Z,102463.13
2023-01-21T11:06:36.308Z,102291.91
2023-01-21T11:11:32.433Z,102471.88
2023-01-21T11:16:39.313Z,102465.25
2023-01-21T11:21:31.115Z,102444.94
2023-01-21T11:26:34.954Z,102434.09
2023-01-21T11:31:27.687Z,102472.53
2023-01-21T11:36:21.159Z,102469.59
2023-01-21T11:41:12.724Z,102471.16
2023-01-21T11:46:20.985Z,102472.50
2023-01-21T11:51:12.665Z,102412.75
2023-01-21T11:56:05.165Z,102438.53
2023-01-21T12:00:59.539Z,102366.09
2023-01-21T12:05:54.341Z,102394.38
2023-01-21T12:10:46.620Z,102436.22
2023-01-21T12:16:03.565Z,102411.28
2023-01-21T12:21:11.300Z,102339.78
2023-01-21T12:26:26.229Z,102385.75
2023-01-21T12:31:23.751Z,102427.28
2023-01-21T12:36:56.050Z,102429.66
2023-01-21T12:42:04.993Z,102430.69
2023-01-21T12:47:03.628Z,102417.81
2023-01-21T12:52:14.758Z,102354.47
2023-01-21T12:57:27.017Z,102342.66
2023-01-21T13:02:18.582Z,102433.66
2023-01-21T13:07:31.917Z,102442.50
2023-01-21T13:12:26.408Z,102263.25
2023-01-21T13:17:26.886Z,102398.81
2023-01-21T13:22:33.019Z,102424.59
2023-01-21T13:27:46.751Z,102316.28
2023-01-21T13:33:03.937Z,102457.00
2023-01-21T13:38:07.053Z,102406.25
2023-01-21T13:43:04.723Z,102455.78
2023-01-21T13:48:12.050Z,102458.44
2023-01-21T13:53:27.894Z,102351.00
2023-01-21T13:58:40.085Z,102348.81
2023-01-21T14:03:40.137Z,102410.50
2023-01-21T14:08:34.629Z,102478.28
2023-01-21T14:13:57.113Z,102485.88
2023-01-21T14:18:57.471Z,102439.63
2023-01-21T14:24:10.872Z,102486.75
2023-01-21T14:29:17.252Z,102465.34
2023-01-21T14:34:22.355Z,102516.06
2023-01-21T14:39:35.742Z,102492.84
2023-01-21T14:44:37.817Z,102506.22
2023-01-21T14:49:40.919Z,102494.94
2023-01-21T14:54:32.620Z,102448.34
2023-01-21T14:59:35.661Z,102416.50
2023-01-21T15:04:41.261Z,102445.16
2023-01-21T15:09:37.166Z,102472.53
2023-01-21T15:14:35.707Z,102521.75
2023-01-21T15:19:35.476Z,102507.50
2023-01-21T15:24:30.621Z,102505.94
2023-01-21T15:29:32.205Z,102509.25
2023-01-21T15:34:24.548Z,102435.16
2023-01-21T15:39:32.463Z,102460.16
2023-01-21T15:44:38.554Z,102513.84
2023-01-21T15:49:47.051Z,102506.63
2023-01-21T15:54:54.038Z,102511.50
2023-01-21T16:00:22.318Z,102424.28
2023-01-21T16:05:32.864Z,102527.09
2023-01-21T16:10:31.658Z,102491.84
2023-01-21T16:15:32.304Z,102532.59
2023-01-21T16:20:24.584Z,102418.13
2023-01-21T16:25:20.367Z,102419.25
2023-01-21T16:30:15.646Z,102532.91
2023-01-21T16:35:08.092Z,102464.75
2023-01-21T16:40:08.951Z,102533.31
2023-01-21T16:45:00.935Z,102457.31
2023-01-21T16:49:53.398Z,102482.84
2023-01-21T16:54:50.325Z,102479.63
2023-01-21T16:59:48.364Z,102526.50
2023-01-21T17:04:39.956Z,102492.06
2023-01-21T17:09:36.444Z,102455.34
2023-01-21T17:14:30.662Z,102432.78
2023-01-21T17:19:43.171Z,102544.81
2023-01-21T17:24:43.885Z,102483.56
2023-01-21T17:29:35.811Z,102418.59
2023-01-21T17:34:29.959Z,102517.28
2023-01-21T17:39:46.662Z,102545.22
2023-01-21T17:44:38.264Z,102485.47
2023-01-21T17:49:29.928Z,102474.09
2023-01-21T17:54:27.490Z,102533.59
2023-01-21T17:59:34.547Z,102562.97
2023-01-21T18:04:26.284Z,102565.66
2023-01-21T18:09:19.673Z,102571.97
2023-01-21T18:14:18.468Z,102512.75
2023-01-21T18:19:34.085Z,102542.31
2023-01-21T18:24:25.889Z,102371.31
2023-01-21T18:29:19.348Z,102575.38
2023-01-21T18:34:11.806Z,102506.31
2023-01-21T18:39:03.578Z,102540.25
2023-01-21T18:43:55.186Z,102583.22
2023-01-21T18:48:46.856Z,102597.00
2023-01-21T18:53:38.826Z,102594.06
2023-01-21T18:58:30.376Z,102557.94
2023-01-21T19:03:23.196Z,102474.31
2023-01-21T19:08:21.915Z,102576.28
2023-01-21T19:13:13.473Z,102497.78
2023-01-21T19:18:13.468Z,102561.50
2023-01-21T19:23:06.830Z,102564.47
2023-01-21T19:27:59.149Z,102405.81
2023-01-21T19:32:52.444Z,102563.34
2023-01-21T19:37:49.267Z,102525.78
2023-01-21T19:42:40.950Z,102369.81
2023-01-21T19:47:32.893Z,102411.19
2023-01-21T19:52:24.539Z,102442.31
2023-01-21T19:57:18.096Z,102443.66
2023-01-21T20:02:12.776Z,102372.78
2023-01-21T20:07:05.213Z,102552.41
2023-01-21T20:11:56.882Z,102336.03
2023-01-21T20:16:53.104Z,102558.84
2023-01-21T20:21:59.844Z,102466.53
2023-01-21T20:26:53.157Z,102504.91
2023-01-21T20:31:44.765Z,102337.38
2023-01-21T20:36:39.473Z,102457.41
2023-01-21T20:41:31.100Z,102498.19
2023-01-21T20:46:27.281Z,102457.34
2023-01-21T20:51:20.402Z,102511.75
2023-01-21T20:56:21.609Z,102536.19
2023-01-21T21:01:15.324Z,102420.00
2023-01-21T21:06:15.958Z,102478.84
2023-01-21T21:11:07.882Z,102466.03
2023-01-21T21:16:00.213Z,102337.50
2023-01-21T21:20:52.041Z,102495.63
2023-01-21T21:25:49.102Z,102447.84
2023-01-21T21:30:40.778Z,102305.88
2023-01-21T21:35:37.350Z,102509.59
2023-01-21T21:40:29.729Z,102411.09
2023-01-21T21:45:21.383Z,102461.56
2023-01-21T21:50:12.988Z,102511.47
2023-01-21T21:55:05.109Z,102443.38
2023-01-21T21:59:56.733Z,102518.00
2023-01-21T22:04:49.112Z,102426.03
2023-01-21T22:09:40.736Z,102498.03
2023-01-21T22:14:32.367Z,102406.28
2023-01-21T22:19:23.994Z,102391.69
2023-01-21T22:24:16.900Z,102505.88
2023-01-21T22:29:08.526Z,102310.06
2023-01-21T22:34:01.126Z,102381.28
2023-01-21T22:38:53.399Z,102142.69
2023-01-21T22:43:48.318Z,102497.41
2023-01-21T22:48:41.544Z,102327.03
2023-01-21T22:53:33.871Z,102487.38
2023-01-21T22:58:27.362Z,102481.59
2023-01-21T23:03:19.902Z,102331.47
2023-01-21T23:08:12.198Z,102448.78
2023-01-21T23:13:04.156Z,102415.31
2023-01-21T23:17:56.111Z,102499.78
2023-01-21T23:22:48.582Z,102410.03
2023-01-21T23:27:40.635Z,102493.38
2023-01-21T23:32:33.603Z,102479.44
2023-01-21T23:37:25.220Z,102348.22
2023-01-21T23:42:17.087Z,102244.72
2023-01-21T23:47:09.381Z,102293.91
2023-01-21T23:52:01.000Z,102429.06
2023-01-21T23:56:52.591Z,102442.19
